sensor_id;sensor_type;location;lat;lon;timestamp;pressure;altitude;pressure_sealevel;temperature;humidity
68169;BME280;54981;50.206;15.978;2023-07-20T00:00:26;98313.16;;;17.01;nan
68169;BME280;54981;50.206;15.978;2023-07-20T00:03:12;98317.25;;;17.05;nan
68169;BME280;54981;50.206;15.978;2023-07-20T00:05:46;98306.66;;;17.13;nan
68169;BME280;54981;50.206;15.978;2023-07-20T00:08:17;98310.06;;;17.15;nan
68169;BME280;54981;50.206;15.978;2023-07-20T00:10:48;98317.13;;;17.07;nan
68169;BME280;54981;50.206;15.978;2023-07-20T00:13:18;98308.63;;;17.01;nan
68169;BME280;54981;50.206;15.978;2023-07-20T00:15:51;98290.34;;;16.95;nan
68169;BME280;54981;50.206;15.978;2023-07-20T00:18:22;98306.22;;;16.98;nan
68169;BME280;54981;50.206;15.978;2023-07-20T00:20:52;98301.69;;;16.99;nan
68169;BME280;54981;50.206;15.978;2023-07-20T00:23:23;98294.88;;;16.85;nan
68169;BME280;54981;50.206;15.978;2023-07-20T00:25:53;98292.91;;;16.87;nan
68169;BME280;54981;50.206;15.978;2023-07-20T00:28:24;98289.59;;;16.74;nan
68169;BME280;54981;50.206;15.978;2023-07-20T00:30:54;98301.09;;;16.86;nan
68169;BME280;54981;50.206;15.978;2023-07-20T00:33:24;98306.91;;;16.81;nan
68169;BME280;54981;50.206;15.978;2023-07-20T00:35:55;98299.97;;;16.78;nan
68169;BME280;54981;50.206;15.978;2023-07-20T00:38:25;98309.13;;;16.76;nan
68169;BME280;54981;50.206;15.978;2023-07-20T00:40:56;98299.72;;;16.81;nan
68169;BME280;54981;50.206;15.978;2023-07-20T00:43:26;98298.59;;;16.94;nan
68169;BME280;54981;50.206;15.978;2023-07-20T00:45:56;98305.94;;;17.11;nan
68169;BME280;54981;50.206;15.978;2023-07-20T00:48:27;98312.47;;;17.09;nan
68169;BME280;54981;50.206;15.978;2023-07-20T00:50:59;98309.91;;;17.07;nan
68169;BME280;54981;50.206;15.978;2023-07-20T00:53:30;98312.16;;;17.12;nan
68169;BME280;54981;50.206;15.978;2023-07-20T00:56:01;98313.88;;;17.03;nan
68169;BME280;54981;50.206;15.978;2023-07-20T00:58:31;98303.69;;;17.07;nan
68169;BME280;54981;50.206;15.978;2023-07-20T01:01:01;98307.63;;;17.12;nan
68169;BME280;54981;50.206;15.978;2023-07-20T01:03:32;98313.59;;;17.06;nan
68169;BME280;54981;50.206;15.978;2023-07-20T01:06:26;98326.19;;;17.06;nan
68169;BME280;54981;50.206;15.978;2023-07-20T01:09:08;98315.44;;;17.06;nan
68169;BME280;54981;50.206;15.978;2023-07-20T01:14:24;98309.06;;;17.16;nan
68169;BME280;54981;50.206;15.978;2023-07-20T01:16:55;98310.91;;;17.16;nan
68169;BME280;54981;50.206;15.978;2023-07-20T01:19:26;98308.94;;;17.18;nan
68169;BME280;54981;50.206;15.978;2023-07-20T01:24:59;98298.88;;;17.30;nan
68169;BME280;54981;50.206;15.978;2023-07-20T01:27:55;98300.25;;;17.34;nan
68169;BME280;54981;50.206;15.978;2023-07-20T01:33:21;98279.31;;;17.47;nan
68169;BME280;54981;50.206;15.978;2023-07-20T01:35:58;98293.16;;;17.52;nan
68169;BME280;54981;50.206;15.978;2023-07-20T01:38:29;98296.69;;;17.53;nan
68169;BME280;54981;50.206;15.978;2023-07-20T01:41:01;98298.25;;;17.55;nan
68169;BME280;54981;50.206;15.978;2023-07-20T01:43:32;98316.69;;;17.31;nan
68169;BME280;54981;50.206;15.978;2023-07-20T01:46:02;98321.25;;;17.20;nan
68169;BME280;54981;50.206;15.978;2023-07-20T01:48:33;98322.63;;;17.05;nan
68169;BME280;54981;50.206;15.978;2023-07-20T01:51:03;98328.28;;;16.92;nan
68169;BME280;54981;50.206;15.978;2023-07-20T01:53:33;98331.50;;;16.76;nan
68169;BME280;54981;50.206;15.978;2023-07-20T01:56:04;98333.47;;;16.74;nan
68169;BME280;54981;50.206;15.978;2023-07-20T01:58:34;98343.19;;;16.56;nan
68169;BME280;54981;50.206;15.978;2023-07-20T02:01:05;98344.78;;;16.68;nan
68169;BME280;54981;50.206;15.978;2023-07-20T02:03:35;98348.28;;;16.59;nan
68169;BME280;54981;50.206;15.978;2023-07-20T02:06:05;98353.66;;;16.59;nan
68169;BME280;54981;50.206;15.978;2023-07-20T02:08:36;98356.09;;;16.62;nan
68169;BME280;54981;50.206;15.978;2023-07-20T02:11:06;98347.16;;;16.61;nan
68169;BME280;54981;50.206;15.978;2023-07-20T02:13:37;98354.78;;;16.56;nan
68169;BME280;54981;50.206;15.978;2023-07-20T02:16:07;98359.31;;;16.56;nan
68169;BME280;54981;50.206;15.978;2023-07-20T02:18:37;98362.31;;;16.63;nan
68169;BME280;54981;50.206;15.978;2023-07-20T02:21:08;98355.38;;;16.60;nan
68169;BME280;54981;50.206;15.978;2023-07-20T02:23:38;98359.59;;;16.53;nan
68169;BME280;54981;50.206;15.978;2023-07-20T02:26:08;98360.72;;;16.50;nan
68169;BME280;54981;50.206;15.978;2023-07-20T02:28:39;98363.00;;;16.55;nan
68169;BME280;54981;50.206;15.978;2023-07-20T02:31:09;98367.47;;;16.45;nan
68169;BME280;54981;50.206;15.978;2023-07-20T02:33:39;98374.81;;;16.43;nan
68169;BME280;54981;50.206;15.978;2023-07-20T02:36:10;98383.09;;;16.30;nan
68169;BME280;54981;50.206;15.978;2023-07-20T02:38:40;98376.97;;;16.18;nan
68169;BME280;54981;50.206;15.978;2023-07-20T02:41:10;98377.47;;;16.02;nan
68169;BME280;54981;50.206;15.978;2023-07-20T02:43:41;98390.75;;;16.04;nan
68169;BME280;54981;50.206;15.978;2023-07-20T02:46:11;98389.91;;;16.03;nan
68169;BME280;54981;50.206;15.978;2023-07-20T02:48:42;98389.84;;;15.93;nan
68169;BME280;54981;50.206;15.978;2023-07-20T02:51:12;98400.13;;;15.88;nan
68169;BME280;54981;50.206;15.978;2023-07-20T02:53:43;98397.72;;;15.85;nan
68169;BME280;54981;50.206;15.978;2023-07-20T02:56:13;98400.00;;;15.90;nan
68169;BME280;54981;50.206;15.978;2023-07-20T02:58:45;98389.38;;;15.88;nan
68169;BME280;54981;50.206;15.978;2023-07-20T03:01:16;98388.16;;;15.92;nan
68169;BME280;54981;50.206;15.978;2023-07-20T03:03:46;98390.69;;;15.94;nan
68169;BME280;54981;50.206;15.978;2023-07-20T03:06:16;98388.91;;;16.04;nan
68169;BME280;54981;50.206;15.978;2023-07-20T03:08:47;98390.16;;;16.00;nan
68169;BME280;54981;50.206;15.978;2023-07-20T03:11:22;98393.97;;;15.97;nan
68169;BME280;54981;50.206;15.978;2023-07-20T03:13:52;98392.25;;;15.96;nan
68169;BME280;54981;50.206;15.978;2023-07-20T03:16:23;98387.44;;;15.90;nan
68169;BME280;54981;50.206;15.978;2023-07-20T03:18:55;98394.09;;;15.96;nan
68169;BME280;54981;50.206;15.978;2023-07-20T03:21:25;98387.53;;;15.89;nan
68169;BME280;54981;50.206;15.978;2023-07-20T03:23:56;98392.63;;;15.92;nan
68169;BME280;54981;50.206;15.978;2023-07-20T03:26:27;98392.00;;;16.00;nan
68169;BME280;54981;50.206;15.978;2023-07-20T03:28:57;98393.03;;;15.87;nan
68169;BME280;54981;50.206;15.978;2023-07-20T03:31:28;98390.94;;;15.70;nan
68169;BME280;54981;50.206;15.978;2023-07-20T03:33:58;98399.06;;;15.80;nan
68169;BME280;54981;50.206;15.978;2023-07-20T03:36:28;98388.94;;;15.83;nan
68169;BME280;54981;50.206;15.978;2023-07-20T03:38:59;98387.09;;;15.84;nan
68169;BME280;54981;50.206;15.978;2023-07-20T03:41:29;98385.97;;;15.86;nan
68169;BME280;54981;50.206;15.978;2023-07-20T03:44:00;98387.66;;;15.87;nan
68169;BME280;54981;50.206;15.978;2023-07-20T03:46:30;98389.56;;;15.96;nan
68169;BME280;54981;50.206;15.978;2023-07-20T03:49:01;98394.03;;;16.07;nan
68169;BME280;54981;50.206;15.978;2023-07-20T03:51:32;98381.50;;;16.17;nan
68169;BME280;54981;50.206;15.978;2023-07-20T03:54:02;98390.31;;;16.29;nan
68169;BME280;54981;50.206;15.978;2023-07-20T03:56:33;98382.19;;;16.40;nan
68169;BME280;54981;50.206;15.978;2023-07-20T03:59:05;98377.81;;;16.49;nan
68169;BME280;54981;50.206;15.978;2023-07-20T04:01:35;98386.34;;;16.64;nan
68169;BME280;54981;50.206;15.978;2023-07-20T04:04:07;98387.97;;;16.76;nan
68169;BME280;54981;50.206;15.978;2023-07-20T04:06:38;98386.44;;;16.83;nan
68169;BME280;54981;50.206;15.978;2023-07-20T04:09:08;98386.31;;;16.95;nan
68169;BME280;54981;50.206;15.978;2023-07-20T04:11:39;98385.50;;;17.04;nan
68169;BME280;54981;50.206;15.978;2023-07-20T04:14:10;98400.25;;;17.19;nan
68169;BME280;54981;50.206;15.978;2023-07-20T04:16:40;98394.59;;;17.22;nan
68169;BME280;54981;50.206;15.978;2023-07-20T04:19:11;98393.47;;;17.25;nan
68169;BME280;54981;50.206;15.978;2023-07-20T04:21:41;98401.38;;;17.27;nan
68169;BME280;54981;50.206;15.978;2023-07-20T04:24:12;98411.47;;;17.34;nan
68169;BME280;54981;50.206;15.978;2023-07-20T04:26:42;98411.72;;;17.41;nan
68169;BME280;54981;50.206;15.978;2023-07-20T04:29:13;98413.28;;;17.34;nan
68169;BME280;54981;50.206;15.978;2023-07-20T04:31:43;98413.28;;;17.34;nan
68169;BME280;54981;50.206;15.978;2023-07-20T04:34:13;98419.25;;;17.37;nan
68169;BME280;54981;50.206;15.978;2023-07-20T04:36:44;98423.03;;;17.15;nan
68169;BME280;54981;50.206;15.978;2023-07-20T04:39:14;98426.59;;;17.25;nan
68169;BME280;54981;50.206;15.978;2023-07-20T04:41:44;98420.69;;;17.41;nan
68169;BME280;54981;50.206;15.978;2023-07-20T04:44:15;98424.94;;;17.44;nan
68169;BME280;54981;50.206;15.978;2023-07-20T04:46:46;98425.63;;;17.46;nan
68169;BME280;54981;50.206;15.978;2023-07-20T04:49:16;98430.03;;;17.57;nan
68169;BME280;54981;50.206;15.978;2023-07-20T04:51:46;98429.72;;;17.50;nan
68169;BME280;54981;50.206;15.978;2023-07-20T04:54:17;98420.53;;;17.43;nan
68169;BME280;54981;50.206;15.978;2023-07-20T04:56:48;98424.06;;;17.63;nan
68169;BME280;54981;50.206;15.978;2023-07-20T04:59:19;98424.94;;;17.83;nan
68169;BME280;54981;50.206;15.978;2023-07-20T05:01:50;98424.34;;;17.70;nan
68169;BME280;54981;50.206;15.978;2023-07-20T05:04:20;98425.66;;;17.65;nan
68169;BME280;54981;50.206;15.978;2023-07-20T05:06:51;98434.56;;;17.76;nan
68169;BME280;54981;50.206;15.978;2023-07-20T05:09:21;98426.50;;;17.66;nan
68169;BME280;54981;50.206;15.978;2023-07-20T05:11:51;98430.56;;;17.60;nan
68169;BME280;54981;50.206;15.978;2023-07-20T05:14:22;98429.59;;;17.61;nan
68169;BME280;54981;50.206;15.978;2023-07-20T05:16:52;98434.56;;;17.76;nan
68169;BME280;54981;50.206;15.978;2023-07-20T05:19:24;98434.56;;;17.95;nan
68169;BME280;54981;50.206;15.978;2023-07-20T05:21:55;98426.59;;;18.13;nan
68169;BME280;54981;50.206;15.978;2023-07-20T05:24:25;98438.50;;;18.20;nan
68169;BME280;54981;50.206;15.978;2023-07-20T05:26:55;98429.00;;;18.26;nan
68169;BME280;54981;50.206;15.978;2023-07-20T05:29:26;98435.09;;;18.28;nan
68169;BME280;54981;50.206;15.978;2023-07-20T05:31:56;98438.03;;;18.35;nan
68169;BME280;54981;50.206;15.978;2023-07-20T05:34:26;98440.59;;;18.36;nan
68169;BME280;54981;50.206;15.978;2023-07-20T05:36:57;98441.16;;;18.30;nan
68169;BME280;54981;50.206;15.978;2023-07-20T05:39:27;98446.41;;;18.31;nan
68169;BME280;54981;50.206;15.978;2023-07-20T05:41:57;98442.91;;;18.59;nan
68169;BME280;54981;50.206;15.978;2023-07-20T05:44:28;98440.06;;;18.70;nan
68169;BME280;54981;50.206;15.978;2023-07-20T05:46:58;98440.91;;;18.70;nan
68169;BME280;54981;50.206;15.978;2023-07-20T05:49:29;98436.97;;;18.65;nan
68169;BME280;54981;50.206;15.978;2023-07-20T05:51:59;98456.28;;;18.60;nan
68169;BME280;54981;50.206;15.978;2023-07-20T05:54:31;98454.31;;;18.52;nan
68169;BME280;54981;50.206;15.978;2023-07-20T05:57:01;98454.31;;;18.52;nan
68169;BME280;54981;50.206;15.978;2023-07-20T05:59:31;98450.78;;;18.42;nan
68169;BME280;54981;50.206;15.978;2023-07-20T06:02:02;98455.47;;;18.50;nan
68169;BME280;54981;50.206;15.978;2023-07-20T06:04:32;98453.75;;;18.49;nan
68169;BME280;54981;50.206;15.978;2023-07-20T06:07:02;98457.78;;;18.35;nan
68169;BME280;54981;50.206;15.978;2023-07-20T06:09:33;98454.72;;;18.58;nan
68169;BME280;54981;50.206;15.978;2023-07-20T06:12:04;98457.28;;;18.97;nan
68169;BME280;54981;50.206;15.978;2023-07-20T06:14:35;98465.50;;;18.95;nan
68169;BME280;54981;50.206;15.978;2023-07-20T06:17:05;98455.66;;;18.86;nan
68169;BME280;54981;50.206;15.978;2023-07-20T06:19:36;98450.69;;;19.09;nan
68169;BME280;54981;50.206;15.978;2023-07-20T06:22:06;98450.88;;;18.98;nan
68169;BME280;54981;50.206;15.978;2023-07-20T06:24:36;98454.00;;;19.03;nan
68169;BME280;54981;50.206;15.978;2023-07-20T06:27:07;98453.56;;;19.07;nan
68169;BME280;54981;50.206;15.978;2023-07-20T06:29:37;98457.28;;;19.24;nan
68169;BME280;54981;50.206;15.978;2023-07-20T06:32:08;98451.63;;;18.90;nan
68169;BME280;54981;50.206;15.978;2023-07-20T06:34:38;98452.94;;;18.86;nan
68169;BME280;54981;50.206;15.978;2023-07-20T06:37:08;98456.88;;;18.91;nan
68169;BME280;54981;50.206;15.978;2023-07-20T06:39:39;98453.91;;;19.40;nan
68169;BME280;54981;50.206;15.978;2023-07-20T06:42:10;98447.84;;;19.56;nan
68169;BME280;54981;50.206;15.978;2023-07-20T06:44:40;98454.41;;;19.71;nan
68169;BME280;54981;50.206;15.978;2023-07-20T06:47:10;98447.94;;;19.82;nan
68169;BME280;54981;50.206;15.978;2023-07-20T06:49:41;98453.56;;;19.89;nan
68169;BME280;54981;50.206;15.978;2023-07-20T06:52:11;98437.38;;;20.15;nan
68169;BME280;54981;50.206;15.978;2023-07-20T06:54:52;98446.75;;;20.20;nan
68169;BME280;54981;50.206;15.978;2023-07-20T06:57:22;98445.19;;;20.44;nan
68169;BME280;54981;50.206;15.978;2023-07-20T06:59:53;98449.56;;;20.63;nan
68169;BME280;54981;50.206;15.978;2023-07-20T07:02:23;98439.84;;;20.52;nan
68169;BME280;54981;50.206;15.978;2023-07-20T07:04:54;98447.56;;;20.21;nan
68169;BME280;54981;50.206;15.978;2023-07-20T07:07:25;98448.22;;;19.79;nan
68169;BME280;54981;50.206;15.978;2023-07-20T07:09:55;98451.63;;;19.99;nan
68169;BME280;54981;50.206;15.978;2023-07-20T07:12:26;98446.53;;;19.96;nan
68169;BME280;54981;50.206;15.978;2023-07-20T07:14:57;98441.41;;;20.37;nan
68169;BME280;54981;50.206;15.978;2023-07-20T07:17:27;98448.03;;;20.60;nan
68169;BME280;54981;50.206;15.978;2023-07-20T07:19:57;98447.34;;;20.58;nan
68169;BME280;54981;50.206;15.978;2023-07-20T07:22:28;98442.56;;;20.08;nan
68169;BME280;54981;50.206;15.978;2023-07-20T07:24:59;98454.56;;;20.32;nan
68169;BME280;54981;50.206;15.978;2023-07-20T07:27:29;98445.56;;;20.75;nan
68169;BME280;54981;50.206;15.978;2023-07-20T07:30:00;98445.06;;;20.72;nan
68169;BME280;54981;50.206;15.978;2023-07-20T07:32:31;98434.97;;;20.56;nan
68169;BME280;54981;50.206;15.978;2023-07-20T07:35:01;98445.72;;;20.48;nan
68169;BME280;54981;50.206;15.978;2023-07-20T07:37:31;98448.94;;;20.51;nan
68169;BME280;54981;50.206;15.978;2023-07-20T07:40:03;98440.47;;;20.72;nan
68169;BME280;54981;50.206;15.978;2023-07-20T07:42:33;98444.00;;;20.64;nan
68169;BME280;54981;50.206;15.978;2023-07-20T07:45:04;98449.28;;;21.09;nan
68169;BME280;54981;50.206;15.978;2023-07-20T07:47:35;98437.81;;;21.23;nan
68169;BME280;54981;50.206;15.978;2023-07-20T07:50:06;98448.44;;;21.59;nan
68169;BME280;54981;50.206;15.978;2023-07-20T07:52:36;98441.91;;;21.35;nan
68169;BME280;54981;50.206;15.978;2023-07-20T07:55:07;98450.66;;;21.21;nan
68169;BME280;54981;50.206;15.978;2023-07-20T07:57:37;98445.88;;;21.49;nan
68169;BME280;54981;50.206;15.978;2023-07-20T08:00:08;98449.97;;;21.69;nan
68169;BME280;54981;50.206;15.978;2023-07-20T08:02:42;98446.94;;;22.05;nan
68169;BME280;54981;50.206;15.978;2023-07-20T08:05:12;98457.59;;;21.90;nan
68169;BME280;54981;50.206;15.978;2023-07-20T08:07:43;98446.75;;;21.90;nan
68169;BME280;54981;50.206;15.978;2023-07-20T08:10:13;98455.75;;;22.48;nan
68169;BME280;54981;50.206;15.978;2023-07-20T08:12:44;98454.41;;;22.44;nan
68169;BME280;54981;50.206;15.978;2023-07-20T08:15:14;98454.75;;;22.33;nan
68169;BME280;54981;50.206;15.978;2023-07-20T08:17:44;98459.47;;;21.98;nan
68169;BME280;54981;50.206;15.978;2023-07-20T08:20:15;98449.16;;;22.35;nan
68169;BME280;54981;50.206;15.978;2023-07-20T08:22:47;98458.81;;;22.37;nan
68169;BME280;54981;50.206;15.978;2023-07-20T08:25:17;98459.13;;;22.59;nan
68169;BME280;54981;50.206;15.978;2023-07-20T08:27:48;98455.06;;;22.46;nan
68169;BME280;54981;50.206;15.978;2023-07-20T08:30:21;98464.38;;;22.44;nan
68169;BME280;54981;50.206;15.978;2023-07-20T08:32:52;98456.28;;;21.86;nan
68169;BME280;54981;50.206;15.978;2023-07-20T08:35:22;98444.91;;;22.32;nan
68169;BME280;54981;50.206;15.978;2023-07-20T08:37:52;98455.91;;;21.81;nan
68169;BME280;54981;50.206;15.978;2023-07-20T08:40:23;98455.25;;;22.12;nan
68169;BME280;54981;50.206;15.978;2023-07-20T08:42:54;98452.66;;;22.60;nan
68169;BME280;54981;50.206;15.978;2023-07-20T08:45:26;98456.16;;;22.85;nan
68169;BME280;54981;50.206;15.978;2023-07-20T08:47:58;98456.31;;;23.00;nan
68169;BME280;54981;50.206;15.978;2023-07-20T08:50:30;98463.22;;;23.10;nan
68169;BME280;54981;50.206;15.978;2023-07-20T08:53:01;98462.34;;;22.46;nan
68169;BME280;54981;50.206;15.978;2023-07-20T08:55:32;98462.38;;;22.29;nan
68169;BME280;54981;50.206;15.978;2023-07-20T08:58:05;98459.31;;;22.24;nan
68169;BME280;54981;50.206;15.978;2023-07-20T09:00:38;98464.38;;;22.60;nan
68169;BME280;54981;50.206;15.978;2023-07-20T09:03:10;98464.38;;;22.60;nan
68169;BME280;54981;50.206;15.978;2023-07-20T09:05:44;98459.31;;;23.13;nan
68169;BME280;54981;50.206;15.978;2023-07-20T09:08:14;98463.41;;;23.71;nan
68169;BME280;54981;50.206;15.978;2023-07-20T09:10:45;98461.13;;;23.29;nan
68169;BME280;54981;50.206;15.978;2023-07-20T09:13:16;98465.03;;;23.57;nan
68169;BME280;54981;50.206;15.978;2023-07-20T09:15:47;98466.84;;;23.96;nan
68169;BME280;54981;50.206;15.978;2023-07-20T09:18:25;98459.22;;;23.92;nan
68169;BME280;54981;50.206;15.978;2023-07-20T09:21:00;98463.25;;;24.19;nan
68169;BME280;54981;50.206;15.978;2023-07-20T09:23:35;98473.19;;;23.57;nan
68169;BME280;54981;50.206;15.978;2023-07-20T09:26:13;98471.78;;;22.83;nan
68169;BME280;54981;50.206;15.978;2023-07-20T09:28:52;98468.97;;;22.51;nan
68169;BME280;54981;50.206;15.978;2023-07-20T09:31:22;98461.72;;;22.27;nan
68169;BME280;54981;50.206;15.978;2023-07-20T09:33:53;98459.97;;;21.85;nan
68169;BME280;54981;50.206;15.978;2023-07-20T09:36:26;98459.63;;;21.72;nan
68169;BME280;54981;50.206;15.978;2023-07-20T09:38:58;98443.03;;;22.41;nan
68169;BME280;54981;50.206;15.978;2023-07-20T09:41:30;98453.56;;;23.08;nan
68169;BME280;54981;50.206;15.978;2023-07-20T09:44:00;98450.78;;;23.55;nan
68169;BME280;54981;50.206;15.978;2023-07-20T09:46:45;98447.78;;;23.73;nan
68169;BME280;54981;50.206;15.978;2023-07-20T09:49:17;98460.31;;;23.83;nan
68169;BME280;54981;50.206;15.978;2023-07-20T09:51:48;98454.69;;;23.84;nan
68169;BME280;54981;50.206;15.978;2023-07-20T09:54:21;98452.94;;;23.91;nan
68169;BME280;54981;50.206;15.978;2023-07-20T09:56:52;98445.66;;;24.07;nan
68169;BME280;54981;50.206;15.978;2023-07-20T09:59:23;98445.44;;;24.54;nan
68169;BME280;54981;50.206;15.978;2023-07-20T10:01:58;98444.78;;;24.29;nan
68169;BME280;54981;50.206;15.978;2023-07-20T10:04:30;98442.78;;;23.85;nan
68169;BME280;54981;50.206;15.978;2023-07-20T10:07:03;98446.63;;;23.68;nan
68169;BME280;54981;50.206;15.978;2023-07-20T10:09:38;98443.06;;;24.13;nan
68169;BME280;54981;50.206;15.978;2023-07-20T10:12:09;98451.34;;;24.20;nan
68169;BME280;54981;50.206;15.978;2023-07-20T10:14:42;98435.59;;;24.30;nan
68169;BME280;54981;50.206;15.978;2023-07-20T10:17:16;98433.78;;;25.05;nan
68169;BME280;54981;50.206;15.978;2023-07-20T10:19:49;98438.94;;;25.15;nan
68169;BME280;54981;50.206;15.978;2023-07-20T10:22:26;98435.47;;;25.36;nan
68169;BME280;54981;50.206;15.978;2023-07-20T10:24:58;98435.66;;;25.34;nan
68169;BME280;54981;50.206;15.978;2023-07-20T10:27:29;98423.88;;;25.48;nan
68169;BME280;54981;50.206;15.978;2023-07-20T10:29:59;98428.00;;;25.44;nan
68169;BME280;54981;50.206;15.978;2023-07-20T10:32:31;98422.38;;;25.46;nan
68169;BME280;54981;50.206;15.978;2023-07-20T10:35:12;98430.25;;;24.90;nan
68169;BME280;54981;50.206;15.978;2023-07-20T10:37:54;98440.91;;;25.06;nan
68169;BME280;54981;50.206;15.978;2023-07-20T10:47:18;98492.47;;;20.58;100.00
68169;BME280;54981;50.206;15.978;2023-07-20T10:49:59;98496.47;;;20.28;100.00
68169;BME280;54981;50.206;15.978;2023-07-20T10:52:39;98495.75;;;20.96;100.00
68169;BME280;54981;50.206;15.978;2023-07-20T10:55:14;98496.22;;;20.91;100.00
68169;BME280;54981;50.206;15.978;2023-07-20T10:58:14;98488.06;;;21.17;99.46
68169;BME280;54981;50.206;15.978;2023-07-20T11:01:01;98492.59;;;21.09;97.47
68169;BME280;54981;50.206;15.978;2023-07-20T11:03:41;98500.44;;;21.70;93.97
68169;BME280;54981;50.206;15.978;2023-07-20T11:08:57;98484.69;;;22.81;71.18
68169;BME280;54981;50.206;15.978;2023-07-20T11:11:34;98489.31;;;22.39;71.08
68169;BME280;54981;50.206;15.978;2023-07-20T11:14:08;98487.91;;;21.86;74.44
68169;BME280;54981;50.206;15.978;2023-07-20T11:16:43;98493.97;;;21.55;79.53
68169;BME280;54981;50.206;15.978;2023-07-20T11:19:17;98500.78;;;21.67;78.64
68169;BME280;54981;50.206;15.978;2023-07-20T11:21:53;98502.06;;;21.47;78.24
68169;BME280;54981;50.206;15.978;2023-07-20T11:24:24;98487.19;;;21.59;76.52
68169;BME280;54981;50.206;15.978;2023-07-20T11:26:54;98507.38;;;21.65;76.74
68169;BME280;54981;50.206;15.978;2023-07-20T11:29:25;98507.34;;;21.57;78.70
68169;BME280;54981;50.206;15.978;2023-07-20T11:31:57;98505.59;;;21.05;86.95
68169;BME280;54981;50.206;15.978;2023-07-20T11:34:30;98495.44;;;20.73;91.05
68169;BME280;54981;50.206;15.978;2023-07-20T11:37:00;98487.97;;;20.67;93.64
68169;BME280;54981;50.206;15.978;2023-07-20T11:39:31;98483.88;;;20.62;95.72
68169;BME280;54981;50.206;15.978;2023-07-20T11:42:02;98479.78;;;20.58;100.00
68169;BME280;54981;50.206;15.978;2023-07-20T11:44:32;98476.47;;;20.64;100.00
68169;BME280;54981;50.206;15.978;2023-07-20T11:47:08;98476.38;;;20.82;98.00
68169;BME280;54981;50.206;15.978;2023-07-20T11:49:40;98472.09;;;21.06;98.50
68169;BME280;54981;50.206;15.978;2023-07-20T11:52:13;98462.00;;;21.83;93.67
68169;BME280;54981;50.206;15.978;2023-07-20T11:54:45;98466.78;;;22.39;92.13
68169;BME280;54981;50.206;15.978;2023-07-20T11:57:19;98469.94;;;23.31;84.70
68169;BME280;54981;50.206;15.978;2023-07-20T12:00:03;98465.50;;;22.82;81.33
68169;BME280;54981;50.206;15.978;2023-07-20T12:02:41;98464.06;;;22.39;83.37
68169;BME280;54981;50.206;15.978;2023-07-20T12:05:12;98471.53;;;22.37;89.53
68169;BME280;54981;50.206;15.978;2023-07-20T12:07:43;98462.28;;;22.79;85.70
68169;BME280;54981;50.206;15.978;2023-07-20T12:10:13;98458.47;;;23.12;86.54
68169;BME280;54981;50.206;15.978;2023-07-20T12:12:44;98451.31;;;23.20;83.82
68169;BME280;54981;50.206;15.978;2023-07-20T12:15:17;98449.94;;;23.24;71.51
68169;BME280;54981;50.206;15.978;2023-07-20T12:17:53;98462.75;;;23.07;72.23
68169;BME280;54981;50.206;15.978;2023-07-20T12:23:04;98449.81;;;23.40;77.71
68169;BME280;54981;50.206;15.978;2023-07-20T12:25:46;98441.69;;;23.94;73.54
68169;BME280;54981;50.206;15.978;2023-07-20T12:28:19;98432.94;;;24.22;71.96
68169;BME280;54981;50.206;15.978;2023-07-20T12:30:49;98428.19;;;23.86;72.10
68169;BME280;54981;50.206;15.978;2023-07-20T12:33:26;98430.88;;;24.24;72.41
68169;BME280;54981;50.206;15.978;2023-07-20T12:35:57;98428.84;;;24.26;68.69
68169;BME280;54981;50.206;15.978;2023-07-20T12:38:29;98411.56;;;24.19;69.06
68169;BME280;54981;50.206;15.978;2023-07-20T12:41:01;98423.97;;;24.36;69.23
68169;BME280;54981;50.206;15.978;2023-07-20T12:43:33;98418.09;;;24.77;69.06
68169;BME280;54981;50.206;15.978;2023-07-20T12:46:03;98418.78;;;24.50;65.03
68169;BME280;54981;50.206;15.978;2023-07-20T12:51:09;98422.53;;;24.78;64.96
68169;BME280;54981;50.206;15.978;2023-07-20T12:53:40;98422.78;;;24.98;62.83
68169;BME280;54981;50.206;15.978;2023-07-20T12:56:11;98428.63;;;24.95;62.73
68169;BME280;54981;50.206;15.978;2023-07-20T12:58:41;98421.56;;;25.01;68.05
68169;BME280;54981;50.206;15.978;2023-07-20T13:01:12;98423.16;;;25.10;60.37
68169;BME280;54981;50.206;15.978;2023-07-20T13:03:42;98409.66;;;25.02;60.41
68169;BME280;54981;50.206;15.978;2023-07-20T13:06:12;98416.78;;;25.18;61.73
68169;BME280;54981;50.206;15.978;2023-07-20T13:08:43;98408.88;;;25.38;59.21
68169;BME280;54981;50.206;15.978;2023-07-20T13:11:13;98407.66;;;26.05;57.07
68169;BME280;54981;50.206;15.978;2023-07-20T13:13:43;98407.81;;;25.97;54.02
68169;BME280;54981;50.206;15.978;2023-07-20T13:16:14;98400.44;;;25.97;58.05
68169;BME280;54981;50.206;15.978;2023-07-20T13:18:45;98401.56;;;25.81;58.56
68169;BME280;54981;50.206;15.978;2023-07-20T13:21:15;98410.09;;;25.05;59.95
68169;BME280;54981;50.206;15.978;2023-07-20T13:23:47;98410.38;;;25.25;63.13
68169;BME280;54981;50.206;15.978;2023-07-20T13:26:17;98399.81;;;24.71;65.32
68169;BME280;54981;50.206;15.978;2023-07-20T13:28:47;98401.88;;;24.84;68.61
68169;BME280;54981;50.206;15.978;2023-07-20T13:31:18;98400.25;;;25.04;63.22
68169;BME280;54981;50.206;15.978;2023-07-20T13:33:48;98399.22;;;25.20;63.85
68169;BME280;54981;50.206;15.978;2023-07-20T13:36:22;98389.25;;;25.13;63.61
68169;BME280;54981;50.206;15.978;2023-07-20T13:38:53;98385.75;;;25.34;65.71
68169;BME280;54981;50.206;15.978;2023-07-20T13:41:23;98371.09;;;25.99;64.41
68169;BME280;54981;50.206;15.978;2023-07-20T13:43:53;98381.59;;;26.02;58.55
68169;BME280;54981;50.206;15.978;2023-07-20T13:46:24;98385.97;;;25.97;61.41
68169;BME280;54981;50.206;15.978;2023-07-20T13:48:54;98386.88;;;25.82;59.87
68169;BME280;54981;50.206;15.978;2023-07-20T13:51:24;98386.03;;;25.60;61.90